sensor_id;sensor_type;location;lat;lon;timestamp;P1;durP1;ratioP1;P2;durP2;ratioP2
50379;SDS011;37474;59.468;18.040;2023-07-31T00:01:57;6.47;;;5.05;;
50379;SDS011;37474;59.468;18.040;2023-07-31T00:04:26;6.57;;;4.65;;
50379;SDS011;37474;59.468;18.040;2023-07-31T00:06:56;7.85;;;5.32;;
50379;SDS011;37474;59.468;18.040;2023-07-31T00:09:24;8.13;;;6.00;;
50379;SDS011;37474;59.468;18.040;2023-07-31T00:11:53;8.98;;;5.57;;
50379;SDS011;37474;59.468;18.040;2023-07-31T00:14:21;12.32;;;6.30;;
50379;SDS011;37474;59.468;18.040;2023-07-31T00:16:50;8.48;;;5.70;;
50379;SDS011;37474;59.468;18.040;2023-07-31T00:19:19;7.78;;;5.80;;
50379;SDS011;37474;59.468;18.040;2023-07-31T00:21:47;7.22;;;5.43;;
50379;SDS011;37474;59.468;18.040;2023-07-31T00:24:17;9.15;;;6.03;;
50379;SDS011;37474;59.468;18.040;2023-07-31T00:26:46;6.57;;;5.28;;
50379;SDS011;37474;59.468;18.040;2023-07-31T00:29:14;7.57;;;5.80;;
50379;SDS011;37474;59.468;18.040;2023-07-31T00:31:43;6.47;;;5.00;;
50379;SDS011;37474;59.468;18.040;2023-07-31T00:34:11;10.13;;;5.47;;
50379;SDS011;37474;59.468;18.040;2023-07-31T00:36:40;6.63;;;5.78;;
50379;SDS011;37474;59.468;18.040;2023-07-31T00:39:08;8.73;;;5.35;;
50379;SDS011;37474;59.468;18.040;2023-07-31T00:41:38;7.93;;;5.15;;
50379;SDS011;37474;59.468;18.040;2023-07-31T00:44:07;8.30;;;5.03;;
50379;SDS011;37474;59.468;18.040;2023-07-31T00:46:35;7.75;;;5.80;;
50379;SDS011;37474;59.468;18.040;2023-07-31T00:49:04;8.43;;;5.20;;
50379;SDS011;37474;59.468;18.040;2023-07-31T00:51:34;12.27;;;5.68;;
50379;SDS011;37474;59.468;18.040;2023-07-31T00:54:03;8.52;;;5.53;;
50379;SDS011;37474;59.468;18.040;2023-07-31T00:56:32;7.70;;;6.03;;
50379;SDS011;37474;59.468;18.040;2023-07-31T00:59:02;9.87;;;6.30;;
50379;SDS011;37474;59.468;18.040;2023-07-31T01:01:31;7.85;;;6.03;;
50379;SDS011;37474;59.468;18.040;2023-07-31T01:03:59;9.70;;;6.30;;
50379;SDS011;37474;59.468;18.040;2023-07-31T01:06:30;6.83;;;5.10;;
50379;SDS011;37474;59.468;18.040;2023-07-31T01:09:06;7.97;;;5.75;;
50379;SDS011;37474;59.468;18.040;2023-07-31T01:11:42;8.35;;;6.03;;
50379;SDS011;37474;59.468;18.040;2023-07-31T01:14:18;8.10;;;5.87;;
50379;SDS011;37474;59.468;18.040;2023-07-31T01:16:47;8.95;;;5.68;;
50379;SDS011;37474;59.468;18.040;2023-07-31T01:19:16;10.80;;;5.77;;
50379;SDS011;37474;59.468;18.040;2023-07-31T01:21:54;7.57;;;5.80;;
50379;SDS011;37474;59.468;18.040;2023-07-31T01:24:36;9.03;;;6.23;;
50379;SDS011;37474;59.468;18.040;2023-07-31T01:27:12;9.70;;;5.47;;
50379;SDS011;37474;59.468;18.040;2023-07-31T01:29:45;8.35;;;5.80;;
50379;SDS011;37474;59.468;18.040;2023-07-31T01:32:17;8.17;;;6.03;;
50379;SDS011;37474;59.468;18.040;2023-07-31T01:34:47;10.27;;;6.40;;
50379;SDS011;37474;59.468;18.040;2023-07-31T01:37:16;8.43;;;5.60;;
50379;SDS011;37474;59.468;18.040;2023-07-31T01:39:45;9.93;;;6.30;;
50379;SDS011;37474;59.468;18.040;2023-07-31T01:42:15;8.03;;;5.70;;
50379;SDS011;37474;59.468;18.040;2023-07-31T01:44:43;9.13;;;6.05;;
50379;SDS011;37474;59.468;18.040;2023-07-31T01:47:12;6.63;;;5.53;;
50379;SDS011;37474;59.468;18.040;2023-07-31T01:49:41;11.53;;;6.90;;
50379;SDS011;37474;59.468;18.040;2023-07-31T01:52:09;11.00;;;6.93;;
50379;SDS011;37474;59.468;18.040;2023-07-31T01:54:37;8.93;;;6.37;;
50379;SDS011;37474;59.468;18.040;2023-07-31T01:57:06;11.47;;;7.10;;
50379;SDS011;37474;59.468;18.040;2023-07-31T01:59:36;7.43;;;5.90;;
50379;SDS011;37474;59.468;18.040;2023-07-31T02:02:05;8.13;;;6.00;;
50379;SDS011;37474;59.468;18.040;2023-07-31T02:04:33;9.90;;;5.73;;
50379;SDS011;37474;59.468;18.040;2023-07-31T02:07:02;7.77;;;5.80;;
50379;SDS011;37474;59.468;18.040;2023-07-31T02:09:31;6.43;;;5.13;;
50379;SDS011;37474;59.468;18.040;2023-07-31T02:11:59;6.23;;;5.30;;
50379;SDS011;37474;59.468;18.040;2023-07-31T02:14:28;8.57;;;5.93;;
50379;SDS011;37474;59.468;18.040;2023-07-31T02:16:59;6.77;;;5.53;;
50379;SDS011;37474;59.468;18.040;2023-07-31T02:19:27;13.30;;;6.43;;
50379;SDS011;37474;59.468;18.040;2023-07-31T02:21:56;9.57;;;6.37;;
50379;SDS011;37474;59.468;18.040;2023-07-31T02:24:24;10.93;;;6.93;;
50379;SDS011;37474;59.468;18.040;2023-07-31T02:26:53;8.93;;;6.40;;
50379;SDS011;37474;59.468;18.040;2023-07-31T02:29:21;8.13;;;5.93;;
50379;SDS011;37474;59.468;18.040;2023-07-31T02:31:50;7.93;;;5.63;;
50379;SDS011;37474;59.468;18.040;2023-07-31T02:34:20;8.20;;;6.27;;
50379;SDS011;37474;59.468;18.040;2023-07-31T02:36:48;8.75;;;6.65;;
50379;SDS011;37474;59.468;18.040;2023-07-31T02:39:17;8.67;;;6.33;;
50379;SDS011;37474;59.468;18.040;2023-07-31T02:41:46;7.53;;;6.20;;
50379;SDS011;37474;59.468;18.040;2023-07-31T02:44:14;12.30;;;7.40;;
50379;SDS011;37474;59.468;18.040;2023-07-31T02:46:43;15.30;;;8.43;;
50379;SDS011;37474;59.468;18.040;2023-07-31T02:49:11;10.23;;;8.07;;
50379;SDS011;37474;59.468;18.040;2023-07-31T02:51:41;11.53;;;8.33;;
50379;SDS011;37474;59.468;18.040;2023-07-31T02:54:09;12.00;;;8.10;;
50379;SDS011;37474;59.468;18.040;2023-07-31T02:56:38;14.70;;;8.33;;
50379;SDS011;37474;59.468;18.040;2023-07-31T02:59:07;13.10;;;8.03;;
50379;SDS011;37474;59.468;18.040;2023-07-31T03:01:35;9.30;;;7.43;;
50379;SDS011;37474;59.468;18.040;2023-07-31T03:04:05;9.47;;;7.40;;
50379;SDS011;37474;59.468;18.040;2023-07-31T03:06:33;9.33;;;7.17;;
50379;SDS011;37474;59.468;18.040;2023-07-31T03:09:03;10.40;;;7.37;;
50379;SDS011;37474;59.468;18.040;2023-07-31T03:11:32;10.02;;;7.60;;
50379;SDS011;37474;59.468;18.040;2023-07-31T03:14:00;11.77;;;7.23;;
50379;SDS011;37474;59.468;18.040;2023-07-31T03:16:28;9.47;;;6.90;;
50379;SDS011;37474;59.468;18.040;2023-07-31T03:18:57;8.67;;;7.00;;
50379;SDS011;37474;59.468;18.040;2023-07-31T03:21:25;12.03;;;7.70;;
50379;SDS011;37474;59.468;18.040;2023-07-31T03:23:54;14.07;;;7.77;;
50379;SDS011;37474;59.468;18.040;2023-07-31T03:26:24;10.13;;;7.00;;
50379;SDS011;37474;59.468;18.040;2023-07-31T03:28:52;9.82;;;7.00;;
50379;SDS011;37474;59.468;18.040;2023-07-31T03:31:21;13.60;;;8.33;;
50379;SDS011;37474;59.468;18.040;2023-07-31T03:33:50;13.37;;;7.80;;
50379;SDS011;37474;59.468;18.040;2023-07-31T03:36:18;10.60;;;8.00;;
50379;SDS011;37474;59.468;18.040;2023-07-31T03:38:47;15.43;;;9.48;;
50379;SDS011;37474;59.468;18.040;2023-07-31T03:41:15;10.45;;;8.27;;
50379;SDS011;37474;59.468;18.040;2023-07-31T03:43:45;9.43;;;7.88;;
50379;SDS011;37474;59.468;18.040;2023-07-31T03:46:14;9.75;;;7.38;;
50379;SDS011;37474;59.468;18.040;2023-07-31T03:48:42;11.48;;;7.80;;
50379;SDS011;37474;59.468;18.040;2023-07-31T03:51:10;12.45;;;9.00;;
50379;SDS011;37474;59.468;18.040;2023-07-31T03:53:39;12.63;;;8.50;;
50379;SDS011;37474;59.468;18.040;2023-07-31T03:56:07;11.88;;;8.73;;
50379;SDS011;37474;59.468;18.040;2023-07-31T03:58:36;14.80;;;7.95;;
50379;SDS011;37474;59.468;18.040;2023-07-31T04:01:06;9.88;;;7.55;;
50379;SDS011;37474;59.468;18.040;2023-07-31T04:03:34;12.73;;;8.30;;
50379;SDS011;37474;59.468;18.040;2023-07-31T04:06:03;9.43;;;6.35;;
50379;SDS011;37474;59.468;18.040;2023-07-31T04:08:33;11.13;;;7.32;;
50379;SDS011;37474;59.468;18.040;2023-07-31T04:11:02;9.07;;;7.20;;
50379;SDS011;37474;59.468;18.040;2023-07-31T04:13:30;10.90;;;7.68;;
50379;SDS011;37474;59.468;18.040;2023-07-31T04:15:58;8.82;;;6.50;;
50379;SDS011;37474;59.468;18.040;2023-07-31T04:18:28;8.60;;;5.78;;
50379;SDS011;37474;59.468;18.040;2023-07-31T04:20:58;7.75;;;6.95;;
50379;SDS011;37474;59.468;18.040;2023-07-31T04:23:28;11.07;;;7.95;;
50379;SDS011;37474;59.468;18.040;2023-07-31T04:25:56;11.32;;;8.27;;
50379;SDS011;37474;59.468;18.040;2023-07-31T04:28:25;11.75;;;7.88;;
50379;SDS011;37474;59.468;18.040;2023-07-31T04:30:53;10.05;;;7.25;;
50379;SDS011;37474;59.468;18.040;2023-07-31T04:33:22;11.15;;;8.13;;
50379;SDS011;37474;59.468;18.040;2023-07-31T04:35:52;11.88;;;8.07;;
50379;SDS011;37474;59.468;18.040;2023-07-31T04:38:21;10.60;;;8.02;;
50379;SDS011;37474;59.468;18.040;2023-07-31T04:40:50;13.18;;;8.30;;
50379;SDS011;37474;59.468;18.040;2023-07-31T04:43:18;11.70;;;8.05;;
50379;SDS011;37474;59.468;18.040;2023-07-31T04:45:47;8.75;;;7.53;;
50379;SDS011;37474;59.468;18.040;2023-07-31T04:48:17;14.55;;;8.25;;
50379;SDS011;37474;59.468;18.040;2023-07-31T04:50:45;14.70;;;7.50;;
50379;SDS011;37474;59.468;18.040;2023-07-31T04:53:15;11.43;;;7.53;;
50379;SDS011;37474;59.468;18.040;2023-07-31T04:55:43;12.75;;;7.30;;
50379;SDS011;37474;59.468;18.040;2023-07-31T04:58:12;10.55;;;7.88;;
50379;SDS011;37474;59.468;18.040;2023-07-31T05:00:40;12.48;;;8.23;;
50379;SDS011;37474;59.468;18.040;2023-07-31T05:03:09;11.45;;;7.78;;
50379;SDS011;37474;59.468;18.040;2023-07-31T05:05:38;11.90;;;8.60;;
50379;SDS011;37474;59.468;18.040;2023-07-31T05:08:07;9.80;;;7.88;;
50379;SDS011;37474;59.468;18.040;2023-07-31T05:10:36;14.43;;;8.38;;
50379;SDS011;37474;59.468;18.040;2023-07-31T05:13:05;9.38;;;8.38;;
50379;SDS011;37474;59.468;18.040;2023-07-31T05:15:33;10.20;;;8.73;;
50379;SDS011;37474;59.468;18.040;2023-07-31T05:18:02;9.38;;;8.35;;
50379;SDS011;37474;59.468;18.040;2023-07-31T05:20:30;12.07;;;9.35;;
50379;SDS011;37474;59.468;18.040;2023-07-31T05:22:59;12.85;;;9.40;;
50379;SDS011;37474;59.468;18.040;2023-07-31T05:25:27;11.13;;;9.93;;
50379;SDS011;37474;59.468;18.040;2023-07-31T05:27:57;9.73;;;8.73;;
50379;SDS011;37474;59.468;18.040;2023-07-31T05:30:26;12.55;;;9.38;;
50379;SDS011;37474;59.468;18.040;2023-07-31T05:32:54;13.48;;;9.73;;
50379;SDS011;37474;59.468;18.040;2023-07-31T05:35:23;10.52;;;9.43;;
50379;SDS011;37474;59.468;18.040;2023-07-31T05:37:51;11.73;;;10.18;;
50379;SDS011;37474;59.468;18.040;2023-07-31T05:40:20;11.57;;;10.23;;
50379;SDS011;37474;59.468;18.040;2023-07-31T05:42:48;10.75;;;9.40;;
50379;SDS011;37474;59.468;18.040;2023-07-31T05:45:18;14.40;;;10.07;;
50379;SDS011;37474;59.468;18.040;2023-07-31T05:47:46;12.00;;;9.65;;
50379;SDS011;37474;59.468;18.040;2023-07-31T05:50:15;11.25;;;10.13;;
50379;SDS011;37474;59.468;18.040;2023-07-31T05:52:43;13.60;;;10.13;;
50379;SDS011;37474;59.468;18.040;2023-07-31T05:55:12;13.00;;;10.30;;
50379;SDS011;37474;59.468;18.040;2023-07-31T05:57:40;11.85;;;10.65;;
50379;SDS011;37474;59.468;18.040;2023-07-31T06:00:09;12.30;;;10.98;;
50379;SDS011;37474;59.468;18.040;2023-07-31T06:02:40;13.73;;;12.32;;
50379;SDS011;37474;59.468;18.040;2023-07-31T06:05:09;12.07;;;10.13;;
50379;SDS011;37474;59.468;18.040;2023-07-31T06:07:37;12.73;;;10.35;;
50379;SDS011;37474;59.468;18.040;2023-07-31T06:10:06;12.18;;;9.52;;
50379;SDS011;37474;59.468;18.040;2023-07-31T06:12:35;12.48;;;9.77;;
50379;SDS011;37474;59.468;18.040;2023-07-31T06:15:04;10.90;;;9.63;;
50379;SDS011;37474;59.468;18.040;2023-07-31T06:17:33;12.60;;;9.48;;
50379;SDS011;37474;59.468;18.040;2023-07-31T06:20:04;10.52;;;9.32;;
50379;SDS011;37474;59.468;18.040;2023-07-31T06:22:34;10.27;;;9.15;;
50379;SDS011;37474;59.468;18.040;2023-07-31T06:25:03;9.93;;;8.70;;
50379;SDS011;37474;59.468;18.040;2023-07-31T06:27:32;9.65;;;8.57;;
50379;SDS011;37474;59.468;18.040;2023-07-31T06:30:00;12.43;;;9.60;;
50379;SDS011;37474;59.468;18.040;2023-07-31T06:32:30;9.95;;;9.00;;
50379;SDS011;37474;59.468;18.040;2023-07-31T06:34:58;10.48;;;9.18;;
50379;SDS011;37474;59.468;18.040;2023-07-31T06:37:29;9.88;;;8.90;;
50379;SDS011;37474;59.468;18.040;2023-07-31T06:39:57;10.38;;;8.85;;
50379;SDS011;37474;59.468;18.040;2023-07-31T06:42:25;13.73;;;10.23;;
50379;SDS011;37474;59.468;18.040;2023-07-31T06:44:54;9.82;;;8.93;;
50379;SDS011;37474;59.468;18.040;2023-07-31T06:47:22;10.90;;;9.15;;
50379;SDS011;37474;59.468;18.040;2023-07-31T06:49:51;10.82;;;9.73;;
50379;SDS011;37474;59.468;18.040;2023-07-31T06:52:20;10.27;;;8.43;;
50379;SDS011;37474;59.468;18.040;2023-07-31T06:54:57;11.45;;;9.27;;
50379;SDS011;37474;59.468;18.040;2023-07-31T06:57:29;11.88;;;9.43;;
50379;SDS011;37474;59.468;18.040;2023-07-31T06:59:58;12.05;;;9.18;;
50379;SDS011;37474;59.468;18.040;2023-07-31T07:02:26;12.48;;;7.90;;
50379;SDS011;37474;59.468;18.040;2023-07-31T07:04:55;9.93;;;7.50;;
50379;SDS011;37474;59.468;18.040;2023-07-31T07:07:24;11.90;;;7.10;;
50379;SDS011;37474;59.468;18.040;2023-07-31T07:09:52;8.13;;;6.57;;
50379;SDS011;37474;59.468;18.040;2023-07-31T07:12:22;10.60;;;7.13;;
50379;SDS011;37474;59.468;18.040;2023-07-31T07:14:50;6.88;;;5.38;;
50379;SDS011;37474;59.468;18.040;2023-07-31T07:17:19;7.85;;;4.93;;
50379;SDS011;37474;59.468;18.040;2023-07-31T07:19:48;8.90;;;5.47;;
50379;SDS011;37474;59.468;18.040;2023-07-31T07:22:17;10.40;;;5.78;;
50379;SDS011;37474;59.468;18.040;2023-07-31T07:24:45;8.75;;;5.05;;
50379;SDS011;37474;59.468;18.040;2023-07-31T07:27:14;7.20;;;5.15;;
50379;SDS011;37474;59.468;18.040;2023-07-31T07:29:44;6.95;;;5.07;;
50379;SDS011;37474;59.468;18.040;2023-07-31T07:32:13;6.00;;;4.45;;
50379;SDS011;37474;59.468;18.040;2023-07-31T07:34:42;7.70;;;4.22;;
50379;SDS011;37474;59.468;18.040;2023-07-31T07:37:11;5.45;;;3.58;;
50379;SDS011;37474;59.468;18.040;2023-07-31T07:39:40;8.00;;;3.55;;
50379;SDS011;37474;59.468;18.040;2023-07-31T07:42:09;9.38;;;3.75;;
50379;SDS011;37474;59.468;18.040;2023-07-31T07:44:37;9.52;;;3.90;;
50379;SDS011;37474;59.468;18.040;2023-07-31T07:47:07;9.75;;;3.88;;
50379;SDS011;37474;59.468;18.040;2023-07-31T07:49:35;11.18;;;4.22;;
50379;SDS011;37474;59.468;18.040;2023-07-31T07:52:04;9.77;;;4.38;;
50379;SDS011;37474;59.468;18.040;2023-07-31T07:54:33;10.55;;;4.10;;
50379;SDS011;37474;59.468;18.040;2023-07-31T07:57:01;7.97;;;4.13;;
50379;SDS011;37474;59.468;18.040;2023-07-31T07:59:30;8.55;;;4.50;;
50379;SDS011;37474;59.468;18.040;2023-07-31T08:01:59;11.02;;;4.68;;
50379;SDS011;37474;59.468;18.040;2023-07-31T08:04:29;9.98;;;4.15;;
50379;SDS011;37474;59.468;18.040;2023-07-31T08:06:57;9.93;;;4.22;;
50379;SDS011;37474;59.468;18.040;2023-07-31T08:09:25;7.18;;;4.43;;
50379;SDS011;37474;59.468;18.040;2023-07-31T08:11:54;11.85;;;5.35;;
50379;SDS011;37474;59.468;18.040;2023-07-31T08:14:24;7.43;;;4.57;;
50379;SDS011;37474;59.468;18.040;2023-07-31T08:16:53;11.85;;;4.60;;
50379;SDS011;37474;59.468;18.040;2023-07-31T08:19:21;8.57;;;4.85;;
50379;SDS011;37474;59.468;18.040;2023-07-31T08:21:51;8.63;;;4.63;;
50379;SDS011;37474;59.468;18.040;2023-07-31T08:24:23;9.27;;;4.35;;
50379;SDS011;37474;59.468;18.040;2023-07-31T08:26:52;7.82;;;4.47;;
50379;SDS011;37474;59.468;18.040;2023-07-31T09:19:29;7.80;;;3.80;;
50379;SDS011;37474;59.468;18.040;2023-07-31T09:22:00;6.47;;;3.78;;
50379;SDS011;37474;59.468;18.040;2023-07-31T09:24:30;9.65;;;4.15;;
50379;SDS011;37474;59.468;18.040;2023-07-31T09:26:59;9.10;;;4.07;;
50379;SDS011;37474;59.468;18.040;2023-07-31T09:29:28;8.15;;;3.53;;
50379;SDS011;37474;59.468;18.040;2023-07-31T09:31:57;9.48;;;3.30;;
50379;SDS011;37474;59.468;18.040;2023-07-31T09:34:36;9.43;;;3.10;;
50379;SDS011;37474;59.468;18.040;2023-07-31T09:37:06;14.32;;;3.55;;
50379;SDS011;37474;59.468;18.040;2023-07-31T09:39:45;7.07;;;2.95;;
50379;SDS011;37474;59.468;18.040;2023-07-31T09:42:14;5.43;;;2.85;;
50379;SDS011;37474;59.468;18.040;2023-07-31T09:44:53;6.40;;;2.75;;
50379;SDS011;37474;59.468;18.040;2023-07-31T09:47:25;6.82;;;2.78;;
50379;SDS011;37474;59.468;18.040;2023-07-31T09:49:55;7.00;;;2.30;;
50379;SDS011;37474;59.468;18.040;2023-07-31T09:52:25;9.00;;;2.50;;
50379;SDS011;37474;59.468;18.040;2023-07-31T09:54:54;6.35;;;2.50;;
50379;SDS011;37474;59.468;18.040;2023-07-31T09:57:22;4.50;;;2.17;;
50379;SDS011;37474;59.468;18.040;2023-07-31T09:59:52;5.93;;;1.90;;
50379;SDS011;37474;59.468;18.040;2023-07-31T10:02:22;3.95;;;1.70;;
50379;SDS011;37474;59.468;18.040;2023-07-31T10:04:51;3.97;;;2.20;;
50379;SDS011;37474;59.468;18.040;2023-07-31T10:07:26;6.03;;;2.00;;
50379;SDS011;37474;59.468;18.040;2023-07-31T10:09:57;3.33;;;1.70;;
50379;SDS011;37474;59.468;18.040;2023-07-31T10:12:30;3.10;;;1.67;;
50379;SDS011;37474;59.468;18.040;2023-07-31T10:15:01;4.20;;;1.52;;
50379;SDS011;37474;59.468;18.040;2023-07-31T10:17:30;1.98;;;1.17;;
50379;SDS011;37474;59.468;18.040;2023-07-31T10:20:01;4.32;;;1.95;;
50379;SDS011;37474;59.468;18.040;2023-07-31T10:22:32;6.18;;;1.80;;
50379;SDS011;37474;59.468;18.040;2023-07-31T10:25:02;8.73;;;2.10;;
50379;SDS011;37474;59.468;18.040;2023-07-31T10:27:31;6.40;;;1.80;;
50379;SDS011;37474;59.468;18.040;2023-07-31T10:30:03;3.67;;;1.58;;
50379;SDS011;37474;59.468;18.040;2023-07-31T10:32:36;6.72;;;1.50;;
50379;SDS011;37474;59.468;18.040;2023-07-31T10:35:07;5.18;;;1.60;;
50379;SDS011;37474;59.468;18.040;2023-07-31T10:37:39;2.95;;;1.73;;
50379;SDS011;37474;59.468;18.040;2023-07-31T10:40:10;5.07;;;1.55;;
50379;SDS011;37474;59.468;18.040;2023-07-31T10:42:45;4.32;;;1.75;;
50379;SDS011;37474;59.468;18.040;2023-07-31T10:45:23;5.95;;;1.65;;
50379;SDS011;37474;59.468;18.040;2023-07-31T10:48:00;3.65;;;1.45;;
50379;SDS011;37474;59.468;18.040;2023-07-31T10:50:30;4.40;;;1.55;;
50379;SDS011;37474;59.468;18.040;2023-07-31T10:53:01;3.60;;;1.33;;
50379;SDS011;37474;59.468;18.040;2023-07-31T10:55:31;3.72;;;1.27;;
50379;SDS011;37474;59.468;18.040;2023-07-31T10:58:07;4.05;;;1.40;;
50379;SDS011;37474;59.468;18.040;2023-07-31T11:00:37;4.55;;;1.42;;
50379;SDS011;37474;59.468;18.040;2023-07-31T11:03:07;2.88;;;1.30;;
50379;SDS011;37474;59.468;18.040;2023-07-31T11:05:42;6.63;;;2.08;;
50379;SDS011;37474;59.468;18.040;2023-07-31T11:08:18;5.75;;;1.65;;
50379;SDS011;37474;59.468;18.040;2023-07-31T11:10:50;3.95;;;1.77;;
50379;SDS011;37474;59.468;18.040;2023-07-31T11:13:32;3.90;;;1.73;;
50379;SDS011;37474;59.468;18.040;2023-07-31T11:16:02;6.30;;;2.15;;
50379;SDS011;37474;59.468;18.040;2023-07-31T11:18:30;5.07;;;1.65;;
50379;SDS011;37474;59.468;18.040;2023-07-31T11:20:59;6.03;;;1.60;;
50379;SDS011;37474;59.468;18.040;2023-07-31T11:23:30;6.00;;;1.50;;
50379;SDS011;37474;59.468;18.040;2023-07-31T11:25:59;2.85;;;1.40;;
50379;SDS011;37474;59.468;18.040;2023-07-31T11:28:31;7.43;;;1.98;;
50379;SDS011;37474;59.468;18.040;2023-07-31T11:31:01;5.68;;;1.98;;
50379;SDS011;37474;59.468;18.040;2023-07-31T11:33:30;5.10;;;1.70;;
50379;SDS011;37474;59.468;18.040;2023-07-31T11:35:59;4.35;;;1.58;;
50379;SDS011;37474;59.468;18.040;2023-07-31T11:38:29;7.63;;;2.08;;
50379;SDS011;37474;59.468;18.040;2023-07-31T11:41:00;5.75;;;1.90;;
50379;SDS011;37474;59.468;18.040;2023-07-31T11:43:30;5.05;;;1.92;;
50379;SDS011;37474;59.468;18.040;2023-07-31T11:46:00;8.13;;;2.17;;
50379;SDS011;37474;59.468;18.040;2023-07-31T11:48:31;6.97;;;2.00;;
50379;SDS011;37474;59.468;18.040;2023-07-31T11:51:02;3.97;;;1.58;;
50379;SDS011;37474;59.468;18.040;2023-07-31T11:53:35;6.05;;;1.90;;
50379;SDS011;37474;59.468;18.040;2023-07-31T11:56:08;7.65;;;1.70;;
50379;SDS011;37474;59.468;18.040;2023-07-31T11:58:39;3.55;;;1.63;;
50379;SDS011;37474;59.468;18.040;2023-07-31T12:01:09;4.28;;;1.65;;
50379;SDS011;37474;59.468;18.040;2023-07-31T12:03:41;4.18;;;1.67;;
50379;SDS011;37474;59.468;18.040;2023-07-31T12:06:10;3.38;;;1.80;;
50379;SDS011;37474;59.468;18.040;2023-07-31T12:08:40;3.78;;;1.70;;
50379;SDS011;37474;59.468;18.040;2023-07-31T12:11:09;5.60;;;1.85;;
50379;SDS011;37474;59.468;18.040;2023-07-31T12:13:38;3.70;;;1.65;;
50379;SDS011;37474;59.468;18.040;2023-07-31T12:16:06;5.22;;;1.73;;
50379;SDS011;37474;59.468;18.040;2023-07-31T12:18:35;3.75;;;1.70;;
50379;SDS011;37474;59.468;18.040;2023-07-31T12:21:05;5.45;;;1.83;;
50379;SDS011;37474;59.468;18.040;2023-07-31T12:23:39;3.72;;;1.98;;
50379;SDS011;37474;59.468;18.040;2023-07-31T12:26:10;6.75;;;1.92;;
50379;SDS011;37474;59.468;18.040;2023-07-31T12:31:10;5.65;;;1.80;;
50379;SDS011;37474;59.468;18.040;2023-07-31T12:33:40;3.90;;;1.50;;
50379;SDS011;37474;59.468;18.040;2023-07-31T12:36:10;3.35;;;1.60;;
50379;SDS011;37474;59.468;18.040;2023-07-31T12:38:41;4.43;;;1.92;;
50379;SDS011;37474;59.468;18.040;2023-07-31T12:41:10;2.53;;;1.83;;
50379;SDS011;37474;59.468;18.040;2023-07-31T12:43:39;3.72;;;1.70;;
50379;SDS011;37474;59.468;18.040;2023-07-31T12:46:09;4.10;;;1.77;;
50379;SDS011;37474;59.468;18.040;2023-07-31T12:48:38;4.38;;;1.67;;
50379;SDS011;37474;59.468;18.040;2023-07-31T12:51:07;3.55;;;1.70;;
50379;SDS011;37474;59.468;18.040;2023-07-31T12:53:35;7.60;;;1.77;;
50379;SDS011;37474;59.468;18.040;2023-07-31T12:56:05;4.38;;;1.65;;
50379;SDS011;37474;59.468;18.040;2023-07-31T12:58:34;4.13;;;1.80;;
50379;SDS011;37474;59.468;18.040;2023-07-31T13:01:03;4.15;;;1.80;;
50379;SDS011;37474;59.468;18.040;2023-07-31T13:03:32;3.78;;;1.73;;
50379;SDS011;37474;59.468;18.040;2023-07-31T13:06:01;6.72;;;1.65;;
50379;SDS011;37474;59.468;18.040;2023-07-31T13:08:29;7.35;;;1.95;;
50379;SDS011;37474;59.468;18.040;2023-07-31T13:10:58;3.13;;;1.60;;
50379;SDS011;37474;59.468;18.040;2023-07-31T13:13:28;5.65;;;2.00;;
50379;SDS011;37474;59.468;18.040;2023-07-31T13:15:58;4.03;;;1.27;;
50379;SDS011;37474;59.468;18.040;2023-07-31T13:18:28;2.83;;;1.17;;
50379;SDS011;37474;59.468;18.040;2023-07-31T13:20:56;2.55;;;1.25;;
50379;SDS011;37474;59.468;18.040;2023-07-31T13:23:24;4.43;;;1.42;;
50379;SDS011;37474;59.468;18.040;2023-07-31T13:25:53;3.28;;;1.50;;
50379;SDS011;37474;59.468;18.040;2023-07-31T13:28:21;2.65;;;1.33;;
50379;SDS011;37474;59.468;18.040;2023-07-31T13:30:51;4.03;;;1.52;;
50379;SDS011;37474;59.468;18.040;2023-07-31T13:33:20;3.95;;;1.92;;
50379;SDS011;37474;59.468;18.040;2023-07-31T13:36:03;3.85;;;1.98;;
50379;SDS011;37474;59.468;18.040;2023-07-31T13:38:32;4.60;;;1.70;;
50379;SDS011;37474;59.468;18.040;2023-07-31T13:41:00;3.67;;;1.55;;
50379;SDS011;37474;59.468;18.040;2023-07-31T13:43:30;4.97;;;1.58;;
50379;SDS011;37474;59.468;18.040;2023-07-31T13:45:59;2.47;;;1.48;;
50379;SDS011;37474;59.468;18.040;2023-07-31T13:48:34;1.70;;;1.30;;
50379;SDS011;37474;59.468;18.040;2023-07-31T13:51:03;3.63;;;1.52;;
50379;SDS011;37474;59.468;18.040;2023-07-31T13:53:31;3.88;;;1.40;;
50379;SDS011;37474;59.468;18.040;2023-07-31T13:56:00;2.92;;;1.20;;
50379;SDS011;37474;59.468;18.040;2023-07-31T13:58:28;2.58;;;1.20;;
50379;SDS011;37474;59.468;18.040;2023-07-31T14:00:57;3.03;;;1.23;;
50379;SDS011;37474;59.468;18.040;2023-07-31T14:03:27;5.60;;;1.55;;
50379;SDS011;37474;59.468;18.040;2023-07-31T14:05:56;3.95;;;1.42;;
50379;SDS011;37474;59.468;18.040;2023-07-31T14:08:24;2.38;;;1.00;;
50379;SDS011;37474;59.468;18.040;2023-07-31T14:10:53;1.73;;;1.20;;
50379;SDS011;37474;59.468;18.040;2023-07-31T14:13:21;3.13;;;1.20;;
50379;SDS011;37474;59.468;18.040;2023-07-31T14:15:50;2.83;;;1.40;;
50379;SDS011;37474;59.468;18.040;2023-07-31T14:18:19;4.47;;;1.05;;
50379;SDS011;37474;59.468;18.040;2023-07-31T14:20:50;1.88;;;1.05;;
50379;SDS011;37474;59.468;18.040;2023-07-31T14:23:19;1.92;;;1.33;;
50379;SDS011;37474;59.468;18.040;2023-07-31T14:25:48;2.15;;;1.17;;
50379;SDS011;37474;59.468;18.040;2023-07-31T14:28:17;2.75;;;1.20;;
50379;SDS011;37474;59.468;18.040;2023-07-31T14:30:45;3.60;;;1.35;;
50379;SDS011;37474;59.468;18.040;2023-07-31T14:33:14;2.28;;;1.20;;
50379;SDS011;37474;59.468;18.040;2023-07-31T14:35:42;2.33;;;1.20;;
50379;SDS011;37474;59.468;18.040;2023-07-31T14:38:12;2.55;;;1.10;;
50379;SDS011;37474;59.468;18.040;2023-07-31T14:40:41;1.50;;;0.88;;
50379;SDS011;37474;59.468;18.040;2023-07-31T14:43:10;1.70;;;0.95;;
50379;SDS011;37474;59.468;18.040;2023-07-31T14:45:38;3.05;;;1.25;;
50379;SDS011;37474;59.468;18.040;2023-07-31T14:48:07;1.83;;;1.20;;
50379;SDS011;37474;59.468;18.040;2023-07-31T14:50:36;2.03;;;1.15;;
50379;SDS011;37474;59.468;18.040;2023-07-31T14:53:04;5.35;;;1.45;;
50379;SDS011;37474;59.468;18.040;2023-07-31T14:55:34;2.15;;;1.05;;
50379;SDS011;37474;59.468;18.040;2023-07-31T14:58:03;3.10;;;1.08;;
50379;SDS011;37474;59.468;18.040;2023-07-31T15:00:31;2.70;;;1.10;;
50379;SDS011;37474;59.468;18.040;2023-07-31T15:03:00;2.53;;;1.20;;
50379;SDS011;37474;59.468;18.040;2023-07-31T15:05:28;2.20;;;1.20;;
50379;SDS011;37474;59.468;18.040;2023-07-31T15:07:57;1.95;;;1.30;;
50379;SDS011;37474;59.468;18.040;2023-07-31T15:10:25;2.88;;;1.27;;
50379;SDS011;37474;59.468;18.040;2023-07-31T15:12:55;2.72;;;1.40;;
50379;SDS011;37474;59.468;18.040;2023-07-31T15:15:24;3.70;;;1.13;;
50379;SDS011;37474;59.468;18.040;2023-07-31T15:17:52;2.40;;;1.40;;
50379;SDS011;37474;59.468;18.040;2023-07-31T15:20:22;4.68;;;1.42;;
50379;SDS011;37474;59.468;18.040;2023-07-31T15:22:51;3.25;;;1.45;;
50379;SDS011;37474;59.468;18.040;2023-07-31T15:25:19;2.92;;;1.23;;
50379;SDS011;37474;59.468;18.040;2023-07-31T15:27:48;2.15;;;1.48;;
50379;SDS011;37474;59.468;18.040;2023-07-31T15:30:18;2.42;;;1.50;;
50379;SDS011;37474;59.468;18.040;2023-07-31T15:32:46;4.43;;;1.70;;
50379;SDS011;37474;59.468;18.040;2023-07-31T15:35:16;3.63;;;1.52;;
50379;SDS011;37474;59.468;18.040;2023-07-31T15:37:48;4.78;;;1.60;;